Time;durP1;ratioP1;P1;durP2;ratioP2;P2;SDS_P1;SDS_P2;PMS_P1;PMS_P2;Temp;Humidity;BMP_temperature;BMP_pressure;BME280_temperature;BME280_humidity;BME280_pressure;Samples;Min_cycle;Max_cycle;Signal;HPM_P1;HPM_P2
2021/03/07 00:00:39;;;;;;;;;;;;;;;27.03;22.00;102186.28;5116365;28;807;-36
2021/03/07 00:06:07;;;;;;;;;;;;;;;27.08;21.87;102180.44;5115875;28;597;-32
2021/03/07 00:08:36;;;;;;;;;;;;;;;26.80;22.33;102181.22;5116865;28;806;-32
2021/03/07 00:11:01;;;;;;;;;;;;;;;27.07;21.81;102187.72;5116664;28;1901;-36
2021/03/07 00:13:27;;;;;;;;;;;;;;;27.16;21.65;102183.25;5116546;28;770;-32
2021/03/07 00:15:52;;;;;;;;;;;;;;;27.30;21.50;102183.78;5119999;28;839;-33
2021/03/07 00:18:20;;;;;;;;;;;;;;;27.30;21.82;102178.38;5120959;28;751;-36
2021/03/07 00:20:46;;;;;;;;;;;;;;;27.35;21.45;102182.34;5120507;28;772;-37
2021/03/07 00:23:11;;;;;;;;;;;;;;;27.30;21.64;102181.94;5120278;28;759;-37
2021/03/07 00:25:36;;;;;;;;;;;;;;;26.83;22.09;102174.66;5120180;28;926;-37
2021/03/07 00:28:01;;;;;;;;;;;;;;;26.98;21.99;102170.50;5120326;28;764;-35
2021/03/07 00:30:27;;;;;;;;;;;;;;;27.33;21.56;102170.81;5119859;28;1902;-37
2021/03/07 00:32:52;;;;;;;;;;;;;;;27.50;21.35;102168.31;5120262;28;807;-35
2021/03/07 00:35:17;;;;;;;;;;;;;;;27.44;21.17;102163.53;5120007;28;854;-37
2021/03/07 00:37:43;;;;;;;;;;;;;;;26.36;22.55;102160.16;5119685;28;771;-36
2021/03/07 00:40:08;;;;;;;;;;;;;;;26.50;22.48;102153.44;5120198;28;792;-36
2021/03/07 00:42:34;;;;;;;;;;;;;;;26.79;22.15;102157.94;5120188;28;1117;-35
2021/03/07 00:44:59;;;;;;;;;;;;;;;26.72;21.98;102154.09;5119399;28;822;-36
2021/03/07 00:47:24;;;;;;;;;;;;;;;27.00;21.68;102162.25;5120044;28;812;-34
2021/03/07 00:49:49;;;;;;;;;;;;;;;27.12;21.60;102161.13;5120020;28;824;-40
2021/03/07 00:52:15;;;;;;;;;;;;;;;27.26;21.41;102158.91;5119325;28;1984;-34
2021/03/07 00:54:40;;;;;;;;;;;;;;;27.43;21.09;102150.97;5119488;28;811;-33
2021/03/07 00:57:05;;;;;;;;;;;;;;;27.11;21.65;102153.16;5119574;28;1013;-33
2021/03/07 00:59:31;;;;;;;;;;;;;;;27.17;21.56;102152.56;5119148;28;831;-36
2021/03/07 01:01:56;;;;;;;;;;;;;;;26.67;21.90;102156.38;5119542;28;866;-33
2021/03/07 01:04:24;;;;;;;;;;;;;;;26.66;22.05;102152.81;5119575;28;839;-36
2021/03/07 01:06:50;;;;;;;;;;;;;;;27.15;21.27;102157.25;5119463;28;775;-35
2021/03/07 01:09:15;;;;;;;;;;;;;;;26.70;21.69;102154.25;5119611;28;844;-39
2021/03/07 01:11:40;;;;;;;;;;;;;;;27.09;21.51;102158.69;5118877;28;1977;-33
2021/03/07 01:14:06;;;;;;;;;;;;;;;27.32;21.06;102154.75;5118851;28;747;-36
2021/03/07 01:16:31;;;;;;;;;;;;;;;27.66;20.66;102164.09;5119497;28;827;-36
2021/03/07 01:18:57;;;;;;;;;;;;;;;26.98;21.43;102158.84;5119668;28;739;-34
2021/03/07 01:21:22;;;;;;;;;;;;;;;26.93;21.35;102156.59;5118981;28;783;-39
2021/03/07 01:23:47;;;;;;;;;;;;;;;27.05;21.47;102154.59;5119289;28;779;-34
2021/03/07 01:26:12;;;;;;;;;;;;;;;27.17;21.32;102157.09;5118927;28;961;-35
2021/03/07 01:28:38;;;;;;;;;;;;;;;27.36;20.80;102158.88;5118746;28;905;-39
2021/03/07 01:31:03;;;;;;;;;;;;;;;27.43;20.78;102159.09;5119178;28;1976;-39
2021/03/07 01:33:28;;;;;;;;;;;;;;;27.36;20.97;102161.56;5119104;28;771;-33
2021/03/07 01:35:54;;;;;;;;;;;;;;;27.33;20.74;102154.59;5118394;28;809;-34
2021/03/07 01:38:19;;;;;;;;;;;;;;;27.43;20.59;102154.53;5119047;28;741;-36
2021/03/07 01:40:45;;;;;;;;;;;;;;;27.52;20.54;102155.50;5118583;28;969;-37
2021/03/07 01:43:11;;;;;;;;;;;;;;;26.64;21.42;102141.34;5118363;28;1177;-36
2021/03/07 01:45:36;;;;;;;;;;;;;;;26.53;21.91;102145.03;5119114;28;743;-35
2021/03/07 01:48:06;;;;;;;;;;;;;;;26.73;21.46;102148.56;5118764;28;772;-39
2021/03/07 01:50:32;;;;;;;;;;;;;;;26.12;22.03;102140.69;5118683;28;1917;-35
2021/03/07 01:52:57;;;;;;;;;;;;;;;25.96;22.46;102146.63;5118817;28;787;-35
2021/03/07 01:55:23;;;;;;;;;;;;;;;26.87;21.48;102138.28;5118680;28;818;-35
2021/03/07 01:57:48;;;;;;;;;;;;;;;27.14;21.07;102148.28;5118369;28;981;-34
2021/03/07 02:00:14;;;;;;;;;;;;;;;27.37;20.67;102147.91;5118549;28;792;-36
2021/03/07 02:02:39;;;;;;;;;;;;;;;27.33;20.90;102153.75;5118402;28;731;-35
2021/03/07 02:05:08;;;;;;;;;;;;;;;26.95;21.24;102153.75;5118158;28;783;-36
2021/03/07 02:07:33;;;;;;;;;;;;;;;27.42;20.72;102160.09;5118798;28;846;-35
2021/03/07 02:09:58;;;;;;;;;;;;;;;27.31;20.68;102156.59;5118289;28;790;-35
2021/03/07 02:12:24;;;;;;;;;;;;;;;26.92;21.25;102148.63;5117663;28;1878;-39
2021/03/07 02:14:49;;;;;;;;;;;;;;;26.87;21.30;102154.50;5118216;28;763;-35
2021/03/07 02:17:14;;;;;;;;;;;;;;;26.82;21.46;102148.69;5118385;28;716;-36
2021/03/07 02:19:40;;;;;;;;;;;;;;;26.85;21.36;102149.25;5116729;28;794;-40
2021/03/07 02:22:06;;;;;;;;;;;;;;;26.87;21.43;102157.19;5117080;28;739;-37
2021/03/07 02:24:31;;;;;;;;;;;;;;;27.15;21.06;102149.16;5116642;28;816;-39
2021/03/07 02:26:57;;;;;;;;;;;;;;;27.28;20.92;102146.09;5116421;28;986;-38
2021/03/07 02:29:22;;;;;;;;;;;;;;;27.05;21.39;102149.19;5118114;28;747;-38
2021/03/07 02:31:52;;;;;;;;;;;;;;;27.33;20.76;102146.50;5116761;28;1965;-40
2021/03/07 02:34:48;;;;;;;;;;;;;;;27.21;20.90;102147.72;5117293;28;917;-35
2021/03/07 02:37:13;;;;;;;;;;;;;;;26.54;21.75;102141.38;5117153;28;783;-40
2021/03/07 02:39:40;;;;;;;;;;;;;;;26.62;21.85;102141.50;5116608;28;1266;-37
2021/03/07 02:42:07;;;;;;;;;;;;;;;27.19;21.24;102147.88;5116178;28;1021;-36
2021/03/07 02:44:34;;;;;;;;;;;;;;;27.14;21.06;102145.59;5117713;28;1097;-37
2021/03/07 02:46:59;;;;;;;;;;;;;;;26.59;21.93;102149.84;5116113;28;843;-35
2021/03/07 02:49:26;;;;;;;;;;;;;;;25.91;22.74;102144.34;5117017;28;843;-35
2021/03/07 02:51:51;;;;;;;;;;;;;;;25.77;22.88;102151.03;5116209;28;1901;-36
2021/03/07 02:54:17;;;;;;;;;;;;;;;25.97;22.79;102142.94;5115918;28;866;-37
2021/03/07 02:56:44;;;;;;;;;;;;;;;26.44;22.40;102143.22;5115511;28;1060;-36
2021/03/07 02:59:10;;;;;;;;;;;;;;;26.73;21.81;102145.00;5116299;28;776;-37
2021/03/07 03:01:36;;;;;;;;;;;;;;;26.75;21.87;102143.00;5117455;28;811;-35
2021/03/07 03:06:54;;;;;;;;;;;;;;;27.06;21.73;102148.19;5116017;28;665;-37
2021/03/07 03:09:20;;;;;;;;;;;;;;;27.12;21.39;102149.44;5117399;28;795;-35
2021/03/07 03:11:46;;;;;;;;;;;;;;;27.34;21.38;102150.88;5115434;28;1905;-35
2021/03/07 03:14:12;;;;;;;;;;;;;;;27.21;21.47;102151.25;5115543;28;827;-37
2021/03/07 03:16:37;;;;;;;;;;;;;;;27.17;21.18;102152.56;5117273;28;759;-35
2021/03/07 03:19:04;;;;;;;;;;;;;;;26.44;22.38;102148.63;5115896;28;738;-35
2021/03/07 03:21:29;;;;;;;;;;;;;;;26.87;21.97;102155.34;5117104;28;729;-35
2021/03/07 03:23:55;;;;;;;;;;;;;;;27.28;21.46;102151.50;5117024;28;796;-37
2021/03/07 03:26:24;;;;;;;;;;;;;;;27.06;21.55;102153.59;5115071;28;958;-37
2021/03/07 03:28:51;;;;;;;;;;;;;;;26.21;22.87;102143.50;5116951;28;755;-36
2021/03/07 03:31:16;;;;;;;;;;;;;;;25.84;23.27;102145.06;5117016;28;1977;-33
2021/03/07 03:36:44;;;;;;;;;;;;;;;26.50;22.48;102148.03;5116703;28;613;-37
2021/03/07 03:39:10;;;;;;;;;;;;;;;26.31;22.83;102154.28;5117293;28;744;-36
2021/03/07 03:41:36;;;;;;;;;;;;;;;26.42;22.54;102148.78;5115000;28;990;-40
2021/03/07 03:44:03;;;;;;;;;;;;;;;26.81;22.39;102150.50;5116478;28;1153;-39
2021/03/07 03:46:29;;;;;;;;;;;;;;;26.95;22.10;102151.91;5115793;28;715;-34
2021/03/07 03:48:55;;;;;;;;;;;;;;;27.33;21.43;102154.59;5115698;28;847;-35
2021/03/07 03:51:21;;;;;;;;;;;;;;;27.19;21.77;102144.31;5120178;28;1905;-36
2021/03/07 03:53:46;;;;;;;;;;;;;;;27.05;22.03;102149.19;5119818;28;858;-34
2021/03/07 03:56:11;;;;;;;;;;;;;;;27.22;21.65;102155.66;5120125;28;914;-37
2021/03/07 03:58:38;;;;;;;;;;;;;;;27.08;21.78;102154.28;5120136;28;818;-36
2021/03/07 04:01:03;;;;;;;;;;;;;;;26.46;22.41;102141.25;5119520;28;827;-36
2021/03/07 04:03:28;;;;;;;;;;;;;;;26.94;22.16;102147.50;5119142;28;775;-36
2021/03/07 04:05:54;;;;;;;;;;;;;;;27.16;21.99;102137.34;5119424;28;815;-35
2021/03/07 04:08:20;;;;;;;;;;;;;;;27.32;21.49;102143.94;5119398;28;846;-37
2021/03/07 04:10:45;;;;;;;;;;;;;;;26.89;22.14;102139.00;5120225;28;1898;-36
2021/03/07 04:13:12;;;;;;;;;;;;;;;26.59;22.58;102138.22;5120773;28;772;-37
2021/03/07 04:15:38;;;;;;;;;;;;;;;26.84;22.55;102135.88;5120306;28;834;-34
2021/03/07 04:18:03;;;;;;;;;;;;;;;26.80;22.05;102142.56;5119223;28;768;-37
2021/03/07 04:20:29;;;;;;;;;;;;;;;27.11;21.59;102139.66;5119428;28;755;-36
2021/03/07 04:22:54;;;;;;;;;;;;;;;26.74;22.16;102147.56;5119256;28;807;-41
2021/03/07 04:25:19;;;;;;;;;;;;;;;26.89;21.96;102139.00;5119836;28;842;-36
2021/03/07 04:27:45;;;;;;;;;;;;;;;26.83;22.14;102136.88;5120155;28;949;-36
2021/03/07 04:30:10;;;;;;;;;;;;;;;27.00;21.92;102138.81;5119149;28;918;-35
2021/03/07 04:32:35;;;;;;;;;;;;;;;27.16;21.71;102141.91;5118187;28;1976;-37
2021/03/07 04:35:10;;;;;;;;;;;;;;;26.88;22.04;102140.84;5120396;28;759;-36
2021/03/07 04:37:35;;;;;;;;;;;;;;;26.40;22.55;102139.97;5118921;28;1345;-36
2021/03/07 04:40:01;;;;;;;;;;;;;;;26.52;22.50;102141.53;5118575;28;820;-36
2021/03/07 04:42:26;;;;;;;;;;;;;;;26.79;22.31;102144.44;5119617;28;1120;-35
2021/03/07 04:44:51;;;;;;;;;;;;;;;26.73;22.29;102148.56;5118857;28;768;-36
2021/03/07 04:47:16;;;;;;;;;;;;;;;26.41;21.17;102142.50;5118363;28;783;-38
2021/03/07 04:49:42;;;;;;;;;;;;;;;27.06;16.07;102136.56;5118775;28;882;-36
2021/03/07 04:52:07;;;;;;;;;;;;;;;26.06;14.04;102143.09;5118619;28;1921;-38
2021/03/07 04:54:32;;;;;;;;;;;;;;;24.06;15.17;102139.56;5118519;28;751;-34
2021/03/07 04:56:57;;;;;;;;;;;;;;;22.12;16.23;102135.84;5117733;28;922;-38
2021/03/07 04:59:23;;;;;;;;;;;;;;;22.16;16.06;102133.75;5118087;28;847;-40
2021/03/07 05:01:48;;;;;;;;;;;;;;;23.37;15.01;102131.66;5118120;28;775;-39
2021/03/07 05:07:16;;;;;;;;;;;;;;;22.62;15.07;102118.72;5118072;28;602;-36
2021/03/07 05:09:41;;;;;;;;;;;;;;;20.91;16.13;102122.91;5118172;28;747;-36
2021/03/07 05:12:07;;;;;;;;;;;;;;;19.18;17.86;102126.13;5118105;28;1909;-35
2021/03/07 05:14:32;;;;;;;;;;;;;;;19.04;18.38;102126.94;5118157;28;771;-40
2021/03/07 05:16:58;;;;;;;;;;;;;;;18.56;18.29;102128.88;5118126;28;739;-37
2021/03/07 05:19:23;;;;;;;;;;;;;;;18.18;18.30;102122.19;5118300;28;803;-40
2021/03/07 05:21:48;;;;;;;;;;;;;;;18.56;18.65;102128.00;5118220;28;850;-40
2021/03/07 05:24:14;;;;;;;;;;;;;;;17.96;18.75;102125.19;5118027;28;886;-33
2021/03/07 05:26:39;;;;;;;;;;;;;;;19.08;17.37;102133.81;5117822;28;953;-39
2021/03/07 05:29:04;;;;;;;;;;;;;;;19.70;17.28;102139.78;5118022;28;879;-35
2021/03/07 05:31:30;;;;;;;;;;;;;;;21.59;17.27;102144.97;5118140;28;1976;-35
2021/03/07 05:36:57;;;;;;;;;;;;;;;23.56;17.90;102149.84;5117816;28;590;-40
2021/03/07 05:39:26;;;;;;;;;;;;;;;24.15;17.67;102160.31;5117722;28;823;-38
2021/03/07 05:41:52;;;;;;;;;;;;;;;24.58;17.68;102168.44;5117684;28;958;-34
2021/03/07 05:44:17;;;;;;;;;;;;;;;25.03;17.23;102163.78;5093594;27;711325;-39
2021/03/07 05:46:42;;;;;;;;;;;;;;;25.40;17.24;102165.94;5117370;28;878;-42
2021/03/07 05:49:08;;;;;;;;;;;;;;;25.75;17.27;102160.22;5118925;28;802;-37
2021/03/07 05:51:33;;;;;;;;;;;;;;;26.11;17.07;102162.41;5119327;28;1913;-41
2021/03/07 05:53:58;;;;;;;;;;;;;;;26.24;17.23;102162.09;5118687;28;735;-41
2021/03/07 05:56:24;;;;;;;;;;;;;;;26.44;17.37;102162.13;5118908;28;994;-36
2021/03/07 05:58:49;;;;;;;;;;;;;;;26.61;17.35;102168.63;5119208;28;787;-37
2021/03/07 06:01:14;;;;;;;;;;;;;;;26.93;17.02;102170.09;5118698;28;804;-31
2021/03/07 06:03:40;;;;;;;;;;;;;;;26.74;17.65;102163.75;5118478;28;759;-42
2021/03/07 06:06:05;;;;;;;;;;;;;;;27.08;17.25;102172.34;5118908;28;806;-43
2021/03/07 06:08:30;;;;;;;;;;;;;;;27.28;17.80;102167.72;5119360;28;712;-40
2021/03/07 06:10:58;;;;;;;;;;;;;;;27.00;17.71;102170.34;5117754;28;1972;-38
2021/03/07 06:13:24;;;;;;;;;;;;;;;27.00;17.65;102179.31;5116714;28;1323;-39
2021/03/07 06:15:50;;;;;;;;;;;;;;;27.16;17.70;102180.56;5117035;28;874;-38
2021/03/07 06:18:16;;;;;;;;;;;;;;;27.48;17.40;102173.00;5117032;28;788;-38
2021/03/07 06:20:41;;;;;;;;;;;;;;;27.35;17.56;102173.38;5118844;28;839;-44
2021/03/07 06:23:07;;;;;;;;;;;;;;;27.76;17.23;102167.59;5118634;28;769;-43
2021/03/07 06:25:33;;;;;;;;;;;;;;;28.06;17.45;102176.34;5117981;28;764;-33
2021/03/07 06:27:59;;;;;;;;;;;;;;;28.01;17.48;102170.53;5118079;28;963;-38
2021/03/07 06:30:31;;;;;;;;;;;;;;;28.13;17.30;102171.16;5118134;28;2073;-40
2021/03/07 06:32:57;;;;;;;;;;;;;;;28.05;17.52;102166.53;5117938;28;771;-38
2021/03/07 06:35:25;;;;;;;;;;;;;;;27.91;17.56;102175.22;5118169;28;878;-38
2021/03/07 06:37:51;;;;;;;;;;;;;;;28.36;17.55;102173.44;5118060;28;819;-33
2021/03/07 06:40:27;;;;;;;;;;;;;;;28.62;17.40;102171.75;5117801;28;759;-29
2021/03/07 06:42:52;;;;;;;;;;;;;;;28.90;16.99;102174.28;5117630;28;1224;-42
2021/03/07 06:45:17;;;;;;;;;;;;;;;28.87;16.92;102174.59;5117945;28;754;-39
2021/03/07 06:48:12;;;;;;;;;;;;;;;28.79;17.27;102178.13;5117648;28;807;-40
2021/03/07 06:50:54;;;;;;;;;;;;;;;28.72;17.35;102172.50;5102196;28;1982;-38
2021/03/07 06:53:45;;;;;;;;;;;;;;;27.59;19.07;102172.78;5115639;28;796;-38
2021/03/07 06:56:11;;;;;;;;;;;;;;;28.64;17.84;102175.16;5118529;27;1237;-39
2021/03/07 06:58:36;;;;;;;;;;;;;;;28.70;17.98;102174.50;5127801;27;862;-37
2021/03/07 07:01:01;;;;;;;;;;;;;;;28.72;18.15;102173.34;5117336;28;812;-33
2021/03/07 07:03:31;;;;;;;;;;;;;;;28.75;18.07;102174.88;5117673;28;763;-42
2021/03/07 07:05:56;;;;;;;;;;;;;;;28.68;17.97;102179.22;5117347;28;792;-35
2021/03/07 07:08:40;;;;;;;;;;;;;;;29.03;17.93;102171.19;5117016;28;981;-35
2021/03/07 07:11:06;;;;;;;;;;;;;;;28.20;19.06;102169.56;5117009;28;1963;-33
2021/03/07 07:13:34;;;;;;;;;;;;;;;29.13;17.90;102166.47;5116947;28;841;-37
2021/03/07 07:15:59;;;;;;;;;;;;;;;28.93;18.10;102168.53;5115332;28;1570;-35
2021/03/07 07:18:25;;;;;;;;;;;;;;;28.75;18.61;102164.06;5117521;28;825;-42
2021/03/07 07:20:50;;;;;;;;;;;;;;;28.89;18.54;102153.63;5116953;28;965;-38
2021/03/07 07:23:16;;;;;;;;;;;;;;;29.24;18.25;102162.66;5117308;28;724;-35
2021/03/07 07:25:41;;;;;;;;;;;;;;;28.91;18.39;102159.75;5117177;28;922;-41
2021/03/07 07:28:06;;;;;;;;;;;;;;;28.79;18.72;102149.19;5115786;28;855;-33
2021/03/07 07:30:32;;;;;;;;;;;;;;;29.01;18.59;102143.41;5116961;28;1905;-31
2021/03/07 07:32:57;;;;;;;;;;;;;;;28.84;18.45;102154.94;5115802;28;1025;-35
2021/03/07 07:35:41;;;;;;;;;;;;;;;29.14;18.47;102156.50;5116854;28;863;-38
2021/03/07 07:38:06;;;;;;;;;;;;;;;29.57;18.10;102153.75;5115705;28;851;-40
2021/03/07 07:40:36;;;;;;;;;;;;;;;29.41;18.40;102149.97;5116803;28;843;-35
2021/03/07 07:43:01;;;;;;;;;;;;;;;29.43;18.17;102145.25;5116986;28;1297;-42
2021/03/07 07:45:26;;;;;;;;;;;;;;;29.28;18.32;102149.63;5115846;28;749;-35
2021/03/07 07:47:52;;;;;;;;;;;;;;;29.65;18.15;102144.81;5117117;28;806;-40
2021/03/07 07:50:34;;;;;;;;;;;;;;;29.65;17.46;102142.97;5117044;28;836;-35
2021/03/07 07:52:59;;;;;;;;;;;;;;;29.54;17.76;102130.53;5116529;28;834;-41
2021/03/07 07:55:44;;;;;;;;;;;;;;;29.58;18.02;102140.03;5117119;28;782;-38
2021/03/07 07:58:09;;;;;;;;;;;;;;;29.69;18.03;102127.22;5116709;28;804;-41
2021/03/07 08:00:48;;;;;;;;;;;;;;;29.63;18.42;102120.56;5115109;28;868;-37
2021/03/07 08:03:31;;;;;;;;;;;;;;;29.95;18.26;102120.78;5116056;28;894;-35
2021/03/07 08:05:57;;;;;;;;;;;;;;;30.05;17.80;102117.88;5116730;28;874;-37
2021/03/07 08:08:29;;;;;;;;;;;;;;;30.01;18.02;102109.25;5116396;28;807;-36
2021/03/07 08:10:55;;;;;;;;;;;;;;;30.14;17.82;102113.31;5119486;28;1969;-42
2021/03/07 08:13:29;;;;;;;;;;;;;;;30.04;18.08;102108.06;5137375;28;791;-35
2021/03/07 08:15:55;;;;;;;;;;;;;;;30.01;18.08;102109.25;5117524;28;802;-40
2021/03/07 08:18:20;;;;;;;;;;;;;;;29.98;18.04;102104.16;5115759;28;886;-38
2021/03/07 08:20:46;;;;;;;;;;;;;;;29.82;18.68;102105.00;5115806;28;803;-34
2021/03/07 08:23:12;;;;;;;;;;;;;;;30.15;17.79;102107.72;5116149;28;917;-37
2021/03/07 08:25:46;;;;;;;;;;;;;;;30.33;18.02;102098.56;5116264;28;937;-35
2021/03/07 08:28:30;;;;;;;;;;;;;;;30.42;17.90;102096.69;5115763;28;906;-33
2021/03/07 08:30:56;;;;;;;;;;;;;;;30.33;18.07;102093.13;5116062;28;1974;-36
2021/03/07 08:33:24;;;;;;;;;;;;;;;30.17;17.97;102094.84;5116386;28;638;-37
2021/03/07 08:36:10;;;;;;;;;;;;;;;29.96;18.27;102091.78;5118399;28;799;-35
2021/03/07 08:38:36;;;;;;;;;;;;;;;30.02;18.46;102088.38;5099456;28;1095;-32
2021/03/07 08:41:01;;;;;;;;;;;;;;;30.27;18.50;102088.38;5103612;28;954;-35
2021/03/07 08:43:28;;;;;;;;;;;;;;;30.37;18.31;102086.34;5120288;28;1117;-36
2021/03/07 08:46:08;;;;;;;;;;;;;;;30.42;18.38;102080.38;5119989;28;817;-34
2021/03/07 08:48:33;;;;;;;;;;;;;;;30.43;18.20;102074.78;5119871;28;902;-34
2021/03/07 08:50:58;;;;;;;;;;;;;;;30.35;18.54;102071.22;5120070;28;1905;-36
2021/03/07 08:53:24;;;;;;;;;;;;;;;30.49;18.20;102064.25;5119764;28;862;-35
2021/03/07 08:55:50;;;;;;;;;;;;;;;30.57;18.40;102060.66;5119452;28;973;-36
2021/03/07 08:58:15;;;;;;;;;;;;;;;30.54;18.24;102056.44;5120105;28;771;-33
2021/03/07 09:00:44;;;;;;;;;;;;;;;30.54;18.43;102053.72;5119678;28;894;-37
2021/03/07 09:03:11;;;;;;;;;;;;;;;30.62;18.35;102050.97;5119861;28;748;-34
2021/03/07 09:05:37;;;;;;;;;;;;;;;30.64;18.50;102050.78;5119782;28;847;-35
2021/03/07 09:08:02;;;;;;;;;;;;;;;30.68;18.72;102046.69;5119507;28;752;-37
2021/03/07 09:10:28;;;;;;;;;;;;;;;30.68;18.48;102038.53;5119889;28;1905;-36
2021/03/07 09:12:54;;;;;;;;;;;;;;;30.73;18.57;102036.16;5119531;28;1111;-42
2021/03/07 09:15:19;;;;;;;;;;;;;;;30.70;18.67;102030.25;5119458;28;771;-42
2021/03/07 09:17:44;;;;;;;;;;;;;;;30.83;18.60;102032.41;5119438;28;723;-42
2021/03/07 09:20:10;;;;;;;;;;;;;;;30.75;18.63;102020.53;5119664;28;759;-34
2021/03/07 09:22:37;;;;;;;;;;;;;;;30.79;18.77;102016.44;5119055;28;516;-36
2021/03/07 09:25:09;;;;;;;;;;;;;;;30.84;18.54;102007.78;5119254;28;831;-33
2021/03/07 09:27:38;;;;;;;;;;;;;;;30.88;18.92;102011.81;5119554;28;1001;-36
2021/03/07 09:30:06;;;;;;;;;;;;;;;30.89;18.94;102009.97;5119133;28;798;-36
2021/03/07 09:32:41;;;;;;;;;;;;;;;30.92;18.88;102010.47;5119102;28;1905;-34
2021/03/07 09:35:25;;;;;;;;;;;;;;;30.98;18.72;102008.88;5119330;28;783;-42
2021/03/07 09:37:54;;;;;;;;;;;;;;;30.47;18.27;101993.84;5118806;28;736;-37
2021/03/07 09:40:19;;;;;;;;;;;;;;;28.74;9.00;101986.34;5119114;28;854;-39
2021/03/07 09:42:46;;;;;;;;;;;;;;;26.70;9.47;101973.41;5123668;27;1250;-40
2021/03/07 09:45:12;;;;;;;;;;;;;;;26.25;9.61;101977.69;5129219;27;1297;-40
2021/03/07 09:47:37;;;;;;;;;;;;;;;25.88;10.26;101984.72;5138291;27;794;-36
2021/03/07 09:50:03;;;;;;;;;;;;;;;25.51;9.90;101979.06;5135915;27;1258;-36
2021/03/07 09:52:28;;;;;;;;;;;;;;;25.63;9.97;101969.03;5133296;27;1993;-35
2021/03/07 09:54:54;;;;;;;;;;;;;;;24.89;10.32;101963.09;5117188;28;971;-35
2021/03/07 09:57:20;;;;;;;;;;;;;;;24.62;10.70;101957.38;5118248;28;1102;-37
2021/03/07 09:59:52;;;;;;;;;;;;;;;24.69;10.94;101952.28;5118451;28;795;-38
2021/03/07 10:02:17;;;;;;;;;;;;;;;25.06;10.24;101943.59;5119091;28;809;-36
2021/03/07 10:05:08;;;;;;;;;;;;;;;24.85;10.24;101951.75;5119009;28;744;-37
2021/03/07 10:07:33;;;;;;;;;;;;;;;24.82;10.39;101938.59;5117950;28;743;-36
2021/03/07 10:10:00;;;;;;;;;;;;;;;24.71;10.27;101936.84;5118705;28;811;-35
2021/03/07 10:12:37;;;;;;;;;;;;;;;24.79;10.32;101938.88;5118268;28;1970;-33
2021/03/07 10:15:02;;;;;;;;;;;;;;;24.69;10.02;101925.38;5116886;28;783;-32
2021/03/07 10:17:34;;;;;;;;;;;;;;;24.51;10.28;101920.66;5119221;28;752;-36
2021/03/07 10:20:02;;;;;;;;;;;;;;;24.66;10.09;101914.88;5118327;28;756;-39
2021/03/07 10:22:34;;;;;;;;;;;;;;;24.32;10.56;101911.50;5116724;28;843;-36
2021/03/07 10:24:59;;;;;;;;;;;;;;;24.37;9.85;101896.81;5117841;28;874;-36
2021/03/07 10:27:29;;;;;;;;;;;;;;;24.30;11.19;101897.38;5118017;28;946;-36
2021/03/07 10:29:54;;;;;;;;;;;;;;;24.22;10.73;101897.19;5116937;28;771;-39
2021/03/07 10:32:20;;;;;;;;;;;;;;;23.66;11.54;101894.75;5117893;28;1909;-35
2021/03/07 10:35:16;;;;;;;;;;;;;;;24.46;10.70;101883.41;5117585;28;955;-37
2021/03/07 10:37:42;;;;;;;;;;;;;;;24.60;10.47;101880.47;5118214;28;851;-37
2021/03/07 10:40:08;;;;;;;;;;;;;;;24.40;10.44;101885.78;5118271;28;812;-38
2021/03/07 10:42:34;;;;;;;;;;;;;;;24.01;10.60;101875.69;5117110;28;1167;-39
2021/03/07 10:45:12;;;;;;;;;;;;;;;24.33;10.24;101872.03;5117968;28;743;-37
2021/03/07 10:47:37;;;;;;;;;;;;;;;24.13;10.73;101860.31;5117376;28;837;-39
2021/03/07 10:50:02;;;;;;;;;;;;;;;23.68;11.81;101871.31;5116102;28;787;-38
2021/03/07 10:52:28;;;;;;;;;;;;;;;24.30;11.27;101857.03;5116480;28;1988;-38
2021/03/07 10:54:53;;;;;;;;;;;;;;;23.82;11.66;101862.03;5117520;28;728;-36
2021/03/07 10:57:18;;;;;;;;;;;;;;;23.44;12.33;101858.16;5114913;28;965;-36
2021/03/07 10:59:51;;;;;;;;;;;;;;;23.91;12.01;101846.94;5118549;27;1489;-39
2021/03/07 11:02:16;;;;;;;;;;;;;;;23.88;12.22;101841.84;5125822;27;1303;-37
2021/03/07 11:04:41;;;;;;;;;;;;;;;23.88;12.05;101843.66;5122744;27;1354;-37
2021/03/07 11:07:07;;;;;;;;;;;;;;;23.70;12.17;101828.19;5119865;27;1503;-37
2021/03/07 11:09:32;;;;;;;;;;;;;;;23.87;12.46;101829.41;5116595;28;847;-35
2021/03/07 11:11:58;;;;;;;;;;;;;;;24.37;11.83;101818.84;5126772;27;1886;-37
2021/03/07 11:14:23;;;;;;;;;;;;;;;24.63;11.60;101821.84;5129192;27;845;-38
2021/03/07 11:16:48;;;;;;;;;;;;;;;25.15;12.70;101809.97;5120501;27;1176;-40
2021/03/07 11:19:14;;;;;;;;;;;;;;;26.53;13.79;101811.31;5118915;27;1105;-35
2021/03/07 11:21:39;;;;;;;;;;;;;;;27.29;15.06;101810.09;5118491;27;1244;-42
2021/03/07 11:24:05;;;;;;;;;;;;;;;27.42;15.33;101806.13;5136559;27;790;-42
2021/03/07 11:26:30;;;;;;;;;;;;;;;27.40;16.10;101800.88;5128540;27;952;-36
2021/03/07 11:28:55;;;;;;;;;;;;;;;27.06;16.21;101798.97;5116161;28;807;-41
2021/03/07 11:31:20;;;;;;;;;;;;;;;27.63;16.57;101784.09;5116963;28;1980;-36
2021/03/07 11:33:46;;;;;;;;;;;;;;;28.20;15.96;101781.81;5117263;28;775;-36
2021/03/07 11:36:20;;;;;;;;;;;;;;;28.36;16.40;101773.75;5116687;28;839;-34
2021/03/07 11:38:45;;;;;;;;;;;;;;;27.59;17.00;101786.28;5117367;28;775;-34
2021/03/07 11:41:11;;;;;;;;;;;;;;;27.02;18.07;101779.53;5121905;28;1005;-37
2021/03/07 11:43:36;;;;;;;;;;;;;;;26.12;12.54;101775.75;5136995;28;1078;-38
2021/03/07 11:46:01;;;;;;;;;;;;;;;25.10;13.01;101763.78;5137685;28;732;-38
2021/03/07 11:48:27;;;;;;;;;;;;;;;25.06;13.13;101749.75;5137700;28;830;-37
2021/03/07 11:50:52;;;;;;;;;;;;;;;24.95;13.51;101749.94;5137177;28;1914;-37
2021/03/07 11:53:18;;;;;;;;;;;;;;;24.59;12.14;101745.09;5137647;28;755;-36
2021/03/07 11:55:43;;;;;;;;;;;;;;;24.33;12.38;101735.75;5137388;28;1019;-37
2021/03/07 11:58:08;;;;;;;;;;;;;;;24.46;12.24;101729.25;5117858;28;854;-32
2021/03/07 12:00:33;;;;;;;;;;;;;;;24.61;13.77;101726.97;5116797;28;823;-32
2021/03/07 12:02:59;;;;;;;;;;;;;;;26.34;14.11;101731.34;5116843;28;827;-32
2021/03/07 12:08:26;;;;;;;;;;;;;;;26.51;13.36;101721.56;5116830;28;609;-32
2021/03/07 12:10:52;;;;;;;;;;;;;;;26.86;13.03;101721.66;5121326;27;1968;-32
2021/03/07 12:13:17;;;;;;;;;;;;;;;27.34;13.32;101712.38;5140854;27;862;-32
2021/03/07 12:15:43;;;;;;;;;;;;;;;27.23;13.05;101711.63;5141183;27;851;-30
2021/03/07 12:18:08;;;;;;;;;;;;;;;26.86;14.16;101707.34;5121800;27;811;-32
2021/03/07 12:20:33;;;;;;;;;;;;;;;27.15;12.61;101689.97;5120499;28;855;-34
2021/03/07 12:22:59;;;;;;;;;;;;;;;27.61;12.31;101686.97;5121153;28;799;-33
2021/03/07 12:25:24;;;;;;;;;;;;;;;27.57;12.76;101690.16;5120167;28;1124;-32
2021/03/07 12:27:49;;;;;;;;;;;;;;;26.98;12.73;101683.59;5139750;27;993;-40
2021/03/07 12:30:15;;;;;;;;;;;;;;;27.59;14.40;101675.47;5140949;27;889;-32
2021/03/07 12:32:40;;;;;;;;;;;;;;;27.51;14.84;101681.69;5130655;27;1957;-40
2021/03/07 12:35:21;;;;;;;;;;;;;;;27.79;14.44;101677.94;5119835;28;1232;-33
2021/03/07 12:37:46;;;;;;;;;;;;;;;27.73;14.76;101678.59;5120253;28;866;-36
2021/03/07 12:40:11;;;;;;;;;;;;;;;27.78;15.03;101664.59;5120562;28;776;-32
2021/03/07 12:42:37;;;;;;;;;;;;;;;27.25;15.87;101655.59;5119674;28;1039;-32
2021/03/07 12:45:02;;;;;;;;;;;;;;;28.04;15.41;101661.78;5120197;28;775;-34
2021/03/07 12:47:28;;;;;;;;;;;;;;;27.74;15.62;101656.78;5120148;28;747;-35
2021/03/07 12:49:53;;;;;;;;;;;;;;;27.69;15.80;101647.50;5119637;28;886;-36
2021/03/07 12:52:18;;;;;;;;;;;;;;;27.53;16.16;101648.28;5120059;28;1972;-32
2021/03/07 12:54:44;;;;;;;;;;;;;;;27.80;15.91;101646.31;5120002;28;949;-34
2021/03/07 12:57:09;;;;;;;;;;;;;;;28.02;16.28;101644.84;5119373;28;949;-40
2021/03/07 12:59:34;;;;;;;;;;;;;;;27.97;16.45;101637.25;5120239;28;775;-36
2021/03/07 13:02:00;;;;;;;;;;;;;;;28.25;16.25;101644.19;5119525;28;918;-34
2021/03/07 13:04:25;;;;;;;;;;;;;;;29.01;15.38;101642.28;5119688;28;747;-35
2021/03/07 13:06:50;;;;;;;;;;;;;;;28.74;15.82;101639.78;5119497;28;700;-34
2021/03/07 13:09:15;;;;;;;;;;;;;;;28.29;16.26;101644.69;5119819;28;851;-32
2021/03/07 13:11:41;;;;;;;;;;;;;;;27.96;16.61;101635.53;5119514;28;1913;-29